sensor_id;sensor_type;location;lat;lon;timestamp;P1;durP1;ratioP1;P2;durP2;ratioP2
72379;SDS011;60354;47.798;12.472;2022-08-21T00:02:15;2.35;;;1.30;;
72379;SDS011;60354;47.798;12.472;2022-08-21T00:04:43;1.50;;;1.17;;
72379;SDS011;60354;47.798;12.472;2022-08-21T00:07:08;1.50;;;1.30;;
72379;SDS011;60354;47.798;12.472;2022-08-21T00:09:34;1.33;;;1.10;;
72379;SDS011;60354;47.798;12.472;2022-08-21T00:11:59;1.75;;;1.20;;
72379;SDS011;60354;47.798;12.472;2022-08-21T00:14:25;2.47;;;1.30;;
72379;SDS011;60354;47.798;12.472;2022-08-21T00:16:51;1.70;;;1.25;;
72379;SDS011;60354;47.798;12.472;2022-08-21T00:19:16;1.30;;;1.10;;
72379;SDS011;60354;47.798;12.472;2022-08-21T00:21:42;1.25;;;1.15;;
72379;SDS011;60354;47.798;12.472;2022-08-21T00:24:07;1.20;;;1.10;;
72379;SDS011;60354;47.798;12.472;2022-08-21T00:26:33;1.50;;;1.20;;
72379;SDS011;60354;47.798;12.472;2022-08-21T00:28:59;3.28;;;1.10;;
72379;SDS011;60354;47.798;12.472;2022-08-21T00:31:25;1.20;;;1.02;;
72379;SDS011;60354;47.798;12.472;2022-08-21T00:33:50;1.27;;;1.10;;
72379;SDS011;60354;47.798;12.472;2022-08-21T00:36:16;2.17;;;1.20;;
72379;SDS011;60354;47.798;12.472;2022-08-21T00:38:42;1.25;;;1.15;;
72379;SDS011;60354;47.798;12.472;2022-08-21T00:41:08;2.83;;;1.27;;
72379;SDS011;60354;47.798;12.472;2022-08-21T00:43:35;2.03;;;1.20;;
72379;SDS011;60354;47.798;12.472;2022-08-21T00:46:03;1.30;;;1.10;;
72379;SDS011;60354;47.798;12.472;2022-08-21T00:48:30;2.40;;;1.30;;
72379;SDS011;60354;47.798;12.472;2022-08-21T00:50:57;1.70;;;1.40;;
72379;SDS011;60354;47.798;12.472;2022-08-21T00:53:23;3.67;;;1.38;;
72379;SDS011;60354;47.798;12.472;2022-08-21T00:55:50;1.83;;;1.40;;
72379;SDS011;60354;47.798;12.472;2022-08-21T00:58:16;1.95;;;1.52;;
72379;SDS011;60354;47.798;12.472;2022-08-21T01:00:43;1.45;;;1.17;;
72379;SDS011;60354;47.798;12.472;2022-08-21T01:03:13;2.53;;;1.20;;
72379;SDS011;60354;47.798;12.472;2022-08-21T01:05:40;1.92;;;1.30;;
72379;SDS011;60354;47.798;12.472;2022-08-21T01:08:07;1.30;;;1.20;;
72379;SDS011;60354;47.798;12.472;2022-08-21T01:10:34;1.50;;;1.30;;
72379;SDS011;60354;47.798;12.472;2022-08-21T01:13:02;1.42;;;1.10;;
72379;SDS011;60354;47.798;12.472;2022-08-21T01:15:31;1.23;;;1.10;;
72379;SDS011;60354;47.798;12.472;2022-08-21T01:18:02;1.58;;;1.20;;
72379;SDS011;60354;47.798;12.472;2022-08-21T01:20:29;1.73;;;1.20;;
72379;SDS011;60354;47.798;12.472;2022-08-21T01:22:55;3.13;;;1.38;;
72379;SDS011;60354;47.798;12.472;2022-08-21T01:25:21;1.77;;;1.40;;
72379;SDS011;60354;47.798;12.472;2022-08-21T01:27:46;1.55;;;1.20;;
72379;SDS011;60354;47.798;12.472;2022-08-21T01:32:42;2.38;;;1.35;;
72379;SDS011;60354;47.798;12.472;2022-08-21T01:35:09;1.40;;;1.10;;
72379;SDS011;60354;47.798;12.472;2022-08-21T01:37:37;1.92;;;1.42;;
72379;SDS011;60354;47.798;12.472;2022-08-21T01:40:04;1.80;;;1.30;;
72379;SDS011;60354;47.798;12.472;2022-08-21T01:42:31;1.75;;;1.38;;
72379;SDS011;60354;47.798;12.472;2022-08-21T01:44:56;1.27;;;1.17;;
72379;SDS011;60354;47.798;12.472;2022-08-21T01:47:22;3.40;;;1.75;;
72379;SDS011;60354;47.798;12.472;2022-08-21T01:49:48;3.75;;;1.50;;
72379;SDS011;60354;47.798;12.472;2022-08-21T01:52:13;2.42;;;1.50;;
72379;SDS011;60354;47.798;12.472;2022-08-21T01:54:39;2.35;;;1.55;;
72379;SDS011;60354;47.798;12.472;2022-08-21T01:57:05;3.92;;;1.90;;
72379;SDS011;60354;47.798;12.472;2022-08-21T01:59:31;2.92;;;1.70;;
72379;SDS011;60354;47.798;12.472;2022-08-21T02:01:56;2.65;;;1.52;;
72379;SDS011;60354;47.798;12.472;2022-08-21T02:04:22;2.03;;;1.50;;
72379;SDS011;60354;47.798;12.472;2022-08-21T02:06:48;2.22;;;1.50;;
72379;SDS011;60354;47.798;12.472;2022-08-21T02:09:15;3.53;;;1.55;;
72379;SDS011;60354;47.798;12.472;2022-08-21T02:11:41;2.30;;;1.40;;
72379;SDS011;60354;47.798;12.472;2022-08-21T02:14:07;3.20;;;1.55;;
72379;SDS011;60354;47.798;12.472;2022-08-21T02:16:34;3.72;;;1.40;;
72379;SDS011;60354;47.798;12.472;2022-08-21T02:19:00;2.15;;;1.30;;
72379;SDS011;60354;47.798;12.472;2022-08-21T02:21:26;1.88;;;1.50;;
72379;SDS011;60354;47.798;12.472;2022-08-21T02:23:51;3.20;;;1.50;;
72379;SDS011;60354;47.798;12.472;2022-08-21T02:26:17;4.28;;;1.40;;
72379;SDS011;60354;47.798;12.472;2022-08-21T02:28:43;3.33;;;1.60;;
72379;SDS011;60354;47.798;12.472;2022-08-21T02:31:09;2.80;;;1.60;;
72379;SDS011;60354;47.798;12.472;2022-08-21T02:33:35;2.20;;;1.60;;
72379;SDS011;60354;47.798;12.472;2022-08-21T02:36:00;2.47;;;1.50;;
72379;SDS011;60354;47.798;12.472;2022-08-21T02:38:29;4.35;;;1.70;;
72379;SDS011;60354;47.798;12.472;2022-08-21T02:40:58;1.60;;;1.50;;
72379;SDS011;60354;47.798;12.472;2022-08-21T02:43:26;2.00;;;1.63;;
72379;SDS011;60354;47.798;12.472;2022-08-21T02:45:53;2.20;;;1.50;;
72379;SDS011;60354;47.798;12.472;2022-08-21T02:48:22;3.40;;;1.58;;
72379;SDS011;60354;47.798;12.472;2022-08-21T02:50:53;2.30;;;1.67;;
72379;SDS011;60354;47.798;12.472;2022-08-21T02:53:25;3.10;;;1.80;;
72379;SDS011;60354;47.798;12.472;2022-08-21T02:55:52;1.80;;;1.60;;
72379;SDS011;60354;47.798;12.472;2022-08-21T02:58:20;1.83;;;1.48;;
72379;SDS011;60354;47.798;12.472;2022-08-21T03:00:48;2.47;;;1.50;;
72379;SDS011;60354;47.798;12.472;2022-08-21T03:03:14;2.05;;;1.40;;
72379;SDS011;60354;47.798;12.472;2022-08-21T03:05:41;2.60;;;1.33;;
72379;SDS011;60354;47.798;12.472;2022-08-21T03:08:08;2.20;;;1.60;;
72379;SDS011;60354;47.798;12.472;2022-08-21T03:10:37;1.98;;;1.40;;
72379;SDS011;60354;47.798;12.472;2022-08-21T03:13:05;1.98;;;1.40;;
72379;SDS011;60354;47.798;12.472;2022-08-21T03:15:31;2.30;;;1.55;;
72379;SDS011;60354;47.798;12.472;2022-08-21T03:17:57;3.35;;;1.30;;
72379;SDS011;60354;47.798;12.472;2022-08-21T03:20:24;1.60;;;1.40;;
72379;SDS011;60354;47.798;12.472;2022-08-21T03:22:52;1.98;;;1.50;;
72379;SDS011;60354;47.798;12.472;2022-08-21T03:25:19;3.97;;;1.30;;
72379;SDS011;60354;47.798;12.472;2022-08-21T03:27:46;2.10;;;1.17;;
72379;SDS011;60354;47.798;12.472;2022-08-21T03:30:13;2.60;;;1.20;;
72379;SDS011;60354;47.798;12.472;2022-08-21T03:32:39;3.40;;;1.50;;
72379;SDS011;60354;47.798;12.472;2022-08-21T03:35:06;1.80;;;1.40;;
72379;SDS011;60354;47.798;12.472;2022-08-21T03:37:32;1.85;;;1.30;;
72379;SDS011;60354;47.798;12.472;2022-08-21T03:39:58;2.33;;;1.30;;
72379;SDS011;60354;47.798;12.472;2022-08-21T03:42:24;1.30;;;1.20;;
72379;SDS011;60354;47.798;12.472;2022-08-21T03:44:50;2.70;;;1.33;;
72379;SDS011;60354;47.798;12.472;2022-08-21T03:47:16;2.45;;;1.42;;
72379;SDS011;60354;47.798;12.472;2022-08-21T03:49:41;1.60;;;1.40;;
72379;SDS011;60354;47.798;12.472;2022-08-21T03:52:07;1.35;;;1.10;;
72379;SDS011;60354;47.798;12.472;2022-08-21T03:54:33;1.80;;;1.33;;
72379;SDS011;60354;47.798;12.472;2022-08-21T03:56:58;2.08;;;1.45;;
72379;SDS011;60354;47.798;12.472;2022-08-21T03:59:24;2.95;;;1.60;;
72379;SDS011;60354;47.798;12.472;2022-08-21T04:02:00;3.83;;;1.50;;
72379;SDS011;60354;47.798;12.472;2022-08-21T04:04:26;2.03;;;1.30;;
72379;SDS011;60354;47.798;12.472;2022-08-21T04:06:53;2.03;;;1.40;;
72379;SDS011;60354;47.798;12.472;2022-08-21T04:09:20;1.95;;;1.40;;
72379;SDS011;60354;47.798;12.472;2022-08-21T04:11:46;2.45;;;1.35;;
72379;SDS011;60354;47.798;12.472;2022-08-21T04:14:12;2.25;;;1.35;;
72379;SDS011;60354;47.798;12.472;2022-08-21T04:16:39;4.00;;;1.40;;
72379;SDS011;60354;47.798;12.472;2022-08-21T04:19:05;1.80;;;1.40;;
72379;SDS011;60354;47.798;12.472;2022-08-21T04:21:31;1.80;;;1.30;;
72379;SDS011;60354;47.798;12.472;2022-08-21T04:23:57;2.72;;;1.23;;
72379;SDS011;60354;47.798;12.472;2022-08-21T04:26:23;3.72;;;1.48;;
72379;SDS011;60354;47.798;12.472;2022-08-21T04:28:49;1.98;;;1.30;;
72379;SDS011;60354;47.798;12.472;2022-08-21T04:31:14;2.08;;;1.50;;
72379;SDS011;60354;47.798;12.472;2022-08-21T04:33:40;2.47;;;1.50;;
72379;SDS011;60354;47.798;12.472;2022-08-21T04:36:05;3.40;;;1.50;;
72379;SDS011;60354;47.798;12.472;2022-08-21T04:38:32;6.32;;;1.50;;
72379;SDS011;60354;47.798;12.472;2022-08-21T04:40:57;1.35;;;1.23;;
72379;SDS011;60354;47.798;12.472;2022-08-21T04:43:23;1.73;;;1.27;;
72379;SDS011;60354;47.798;12.472;2022-08-21T04:45:50;3.05;;;1.50;;
72379;SDS011;60354;47.798;12.472;2022-08-21T04:48:17;2.08;;;1.48;;
72379;SDS011;60354;47.798;12.472;2022-08-21T04:53:31;2.50;;;1.48;;
72379;SDS011;60354;47.798;12.472;2022-08-21T04:58:45;4.05;;;1.70;;
72379;SDS011;60354;47.798;12.472;2022-08-21T05:01:13;2.45;;;1.50;;
72379;SDS011;60354;47.798;12.472;2022-08-21T05:03:41;1.75;;;1.38;;
72379;SDS011;60354;47.798;12.472;2022-08-21T05:06:08;2.35;;;1.60;;
72379;SDS011;60354;47.798;12.472;2022-08-21T05:08:35;1.88;;;1.27;;
72379;SDS011;60354;47.798;12.472;2022-08-21T05:11:03;2.75;;;1.63;;
72379;SDS011;60354;47.798;12.472;2022-08-21T05:13:29;2.50;;;1.52;;
72379;SDS011;60354;47.798;12.472;2022-08-21T05:15:55;2.65;;;1.77;;
72379;SDS011;60354;47.798;12.472;2022-08-21T05:18:21;3.00;;;1.60;;
72379;SDS011;60354;47.798;12.472;2022-08-21T05:20:47;1.88;;;1.50;;
72379;SDS011;60354;47.798;12.472;2022-08-21T05:23:13;3.50;;;1.60;;
72379;SDS011;60354;47.798;12.472;2022-08-21T05:25:40;2.30;;;1.70;;
72379;SDS011;60354;47.798;12.472;2022-08-21T05:28:06;1.85;;;1.50;;
72379;SDS011;60354;47.798;12.472;2022-08-21T05:30:32;3.05;;;1.50;;
72379;SDS011;60354;47.798;12.472;2022-08-21T05:32:59;2.47;;;1.60;;
72379;SDS011;60354;47.798;12.472;2022-08-21T05:35:27;3.40;;;1.60;;
72379;SDS011;60354;47.798;12.472;2022-08-21T05:37:53;3.00;;;1.42;;
72379;SDS011;60354;47.798;12.472;2022-08-21T05:40:19;2.42;;;1.70;;
72379;SDS011;60354;47.798;12.472;2022-08-21T05:42:45;3.17;;;1.70;;
72379;SDS011;60354;47.798;12.472;2022-08-21T05:45:11;4.32;;;1.55;;
72379;SDS011;60354;47.798;12.472;2022-08-21T05:47:36;3.25;;;1.58;;
72379;SDS011;60354;47.798;12.472;2022-08-21T05:50:02;4.40;;;1.80;;
72379;SDS011;60354;47.798;12.472;2022-08-21T05:52:28;2.95;;;1.63;;
72379;SDS011;60354;47.798;12.472;2022-08-21T05:54:54;3.88;;;1.90;;
72379;SDS011;60354;47.798;12.472;2022-08-21T05:57:20;2.13;;;1.60;;
72379;SDS011;60354;47.798;12.472;2022-08-21T05:59:46;2.75;;;1.70;;
72379;SDS011;60354;47.798;12.472;2022-08-21T06:02:12;4.68;;;1.80;;
72379;SDS011;60354;47.798;12.472;2022-08-21T06:04:38;4.47;;;2.00;;
72379;SDS011;60354;47.798;12.472;2022-08-21T06:07:05;3.33;;;1.65;;
72379;SDS011;60354;47.798;12.472;2022-08-21T06:09:31;4.50;;;1.85;;
72379;SDS011;60354;47.798;12.472;2022-08-21T06:11:57;3.25;;;1.70;;
72379;SDS011;60354;47.798;12.472;2022-08-21T06:14:23;3.47;;;1.60;;
72379;SDS011;60354;47.798;12.472;2022-08-21T06:16:48;3.67;;;1.73;;
72379;SDS011;60354;47.798;12.472;2022-08-21T06:19:14;3.40;;;1.83;;
72379;SDS011;60354;47.798;12.472;2022-08-21T06:21:39;3.60;;;1.80;;
72379;SDS011;60354;47.798;12.472;2022-08-21T06:24:05;2.75;;;1.70;;
72379;SDS011;60354;47.798;12.472;2022-08-21T06:26:30;4.72;;;2.05;;
72379;SDS011;60354;47.798;12.472;2022-08-21T06:28:56;4.65;;;1.88;;
72379;SDS011;60354;47.798;12.472;2022-08-21T06:31:24;5.00;;;1.50;;
72379;SDS011;60354;47.798;12.472;2022-08-21T06:33:51;2.30;;;1.70;;
72379;SDS011;60354;47.798;12.472;2022-08-21T06:36:18;2.70;;;2.00;;
72379;SDS011;60354;47.798;12.472;2022-08-21T06:38:46;2.58;;;1.85;;
72379;SDS011;60354;47.798;12.472;2022-08-21T06:41:11;3.00;;;1.60;;
72379;SDS011;60354;47.798;12.472;2022-08-21T06:43:37;4.53;;;2.92;;
72379;SDS011;60354;47.798;12.472;2022-08-21T06:46:03;2.47;;;1.77;;
72379;SDS011;60354;47.798;12.472;2022-08-21T06:48:28;2.97;;;1.70;;
72379;SDS011;60354;47.798;12.472;2022-08-21T06:50:57;3.63;;;2.80;;
72379;SDS011;60354;47.798;12.472;2022-08-21T06:53:23;4.53;;;2.67;;
72379;SDS011;60354;47.798;12.472;2022-08-21T06:55:49;3.28;;;1.92;;
72379;SDS011;60354;47.798;12.472;2022-08-21T06:58:15;2.63;;;1.60;;
72379;SDS011;60354;47.798;12.472;2022-08-21T07:00:42;4.05;;;2.10;;
72379;SDS011;60354;47.798;12.472;2022-08-21T07:03:17;3.20;;;1.67;;
72379;SDS011;60354;47.798;12.472;2022-08-21T07:05:51;4.88;;;1.52;;
72379;SDS011;60354;47.798;12.472;2022-08-21T07:08:17;2.58;;;1.60;;
72379;SDS011;60354;47.798;12.472;2022-08-21T07:10:42;4.07;;;1.60;;
72379;SDS011;60354;47.798;12.472;2022-08-21T07:13:08;3.75;;;1.70;;
72379;SDS011;60354;47.798;12.472;2022-08-21T07:15:34;2.80;;;1.70;;
72379;SDS011;60354;47.798;12.472;2022-08-21T07:17:59;3.83;;;2.10;;
72379;SDS011;60354;47.798;12.472;2022-08-21T07:20:26;2.72;;;1.67;;
72379;SDS011;60354;47.798;12.472;2022-08-21T07:22:53;3.40;;;1.90;;
72379;SDS011;60354;47.798;12.472;2022-08-21T07:25:19;3.03;;;1.67;;
72379;SDS011;60354;47.798;12.472;2022-08-21T07:27:44;3.58;;;1.83;;
72379;SDS011;60354;47.798;12.472;2022-08-21T07:30:10;1.80;;;1.60;;
72379;SDS011;60354;47.798;12.472;2022-08-21T07:32:35;4.38;;;1.60;;
72379;SDS011;60354;47.798;12.472;2022-08-21T07:35:01;4.03;;;1.60;;
72379;SDS011;60354;47.798;12.472;2022-08-21T07:37:27;4.00;;;1.50;;
72379;SDS011;60354;47.798;12.472;2022-08-21T07:39:53;2.88;;;1.60;;
72379;SDS011;60354;47.798;12.472;2022-08-21T07:42:18;2.90;;;1.60;;
72379;SDS011;60354;47.798;12.472;2022-08-21T07:44:44;2.80;;;1.70;;
72379;SDS011;60354;47.798;12.472;2022-08-21T07:47:09;2.22;;;1.60;;
72379;SDS011;60354;47.798;12.472;2022-08-21T07:49:35;3.10;;;1.80;;
72379;SDS011;60354;47.798;12.472;2022-08-21T07:52:00;2.35;;;1.60;;
72379;SDS011;60354;47.798;12.472;2022-08-21T07:54:26;2.38;;;1.50;;
72379;SDS011;60354;47.798;12.472;2022-08-21T07:56:52;1.80;;;1.40;;
72379;SDS011;60354;47.798;12.472;2022-08-21T07:59:17;5.20;;;1.50;;
72379;SDS011;60354;47.798;12.472;2022-08-21T08:01:43;2.03;;;1.50;;
72379;SDS011;60354;47.798;12.472;2022-08-21T08:04:08;2.70;;;1.40;;
72379;SDS011;60354;47.798;12.472;2022-08-21T08:06:34;2.70;;;1.33;;
72379;SDS011;60354;47.798;12.472;2022-08-21T08:08:59;2.45;;;1.40;;
72379;SDS011;60354;47.798;12.472;2022-08-21T08:11:27;2.97;;;1.40;;
72379;SDS011;60354;47.798;12.472;2022-08-21T08:13:53;2.53;;;1.40;;
72379;SDS011;60354;47.798;12.472;2022-08-21T08:16:18;2.60;;;1.40;;
72379;SDS011;60354;47.798;12.472;2022-08-21T08:18:44;3.90;;;1.70;;
72379;SDS011;60354;47.798;12.472;2022-08-21T08:21:10;2.03;;;1.50;;
72379;SDS011;60354;47.798;12.472;2022-08-21T08:23:37;3.20;;;1.30;;
72379;SDS011;60354;47.798;12.472;2022-08-21T08:26:02;1.80;;;1.27;;
72379;SDS011;60354;47.798;12.472;2022-08-21T08:28:29;2.45;;;1.40;;
72379;SDS011;60354;47.798;12.472;2022-08-21T08:30:56;2.35;;;1.30;;
72379;SDS011;60354;47.798;12.472;2022-08-21T08:33:23;2.38;;;1.40;;
72379;SDS011;60354;47.798;12.472;2022-08-21T08:35:49;2.83;;;1.50;;
72379;SDS011;60354;47.798;12.472;2022-08-21T08:38:17;3.28;;;1.42;;
72379;SDS011;60354;47.798;12.472;2022-08-21T08:40:51;3.08;;;1.50;;
72379;SDS011;60354;47.798;12.472;2022-08-21T08:43:19;3.80;;;1.30;;
72379;SDS011;60354;47.798;12.472;2022-08-21T08:45:50;2.88;;;1.40;;
72379;SDS011;60354;47.798;12.472;2022-08-21T08:48:30;4.10;;;1.50;;
72379;SDS011;60354;47.798;12.472;2022-08-21T08:51:04;3.72;;;1.35;;
72379;SDS011;60354;47.798;12.472;2022-08-21T08:53:47;3.58;;;1.42;;
72379;SDS011;60354;47.798;12.472;2022-08-21T08:56:32;4.40;;;1.45;;
72379;SDS011;60354;47.798;12.472;2022-08-21T08:59:00;2.40;;;1.60;;
